Huvudsida
METAR-TAF:

METAR-TAF

Flygplatser :

Kosrae, Mikronesien

Kosrae Airport

latitud: 05-21N, longitud: 162-57E, höjd: 3 m

Aktuellt väderrapport

Denna rapport gjordes för 14 timmar och 25 minuter sedan, klockan 03:50 UTC
Vind 4 kt från nord
Temperatur 31°C
Fuktighet 66%
Tryck 1006 hPa
Sikt: 16.1 km
Brutna moln på en höjd av 1900 ft, Högtornande cumulus.
Brutna moln på en höjd av 13000 ft
Mulet på en höjd av 30000 ft

METAR: PTSA 190350Z 01004KT 10SM BKN019TCU BKN130 OVC300 31/24 A2972 RMK TCU NE LAST

Tid: 05:15 (18:15 UTC)

Väderprognos

Denna rapport gjordes för 18 timmar och 26 minuter sedan, klockan 23:49 UTC
Prognos gäller från 19 kl. 00 UTC till 19 kl. 24 UTC
Vind 8 kt från ost/sydost
Sikt: 10 km
Spridda moln på en höjd av 2000 ft
Spridda moln på en höjd av 14000 ft

TAF: PTSA 182349Z 1900/1924 11008KT P6SM SCT020 SCT140

Aktuella väderrapporter och prognoser från 4000 flygplatser (METAR- och TAF-rapporter).

De tillgängliga stationerna syns som gula och röda prickar på kartan.

För musen över prickarna för att se namnen på stationerna.

Klicka sedan för att få väderrapporter och prognoser.

För att ändra kartan: Klicka på de gröna knapparna med ett svart kors på för att zooma in; den gröna knappen med ett streck på för att zooma ut; eller på de gröna pilarna för angränsande kartor.


METAR-TAF: